Timeline UpdatesTrip UpdatesNews PostsPvt PostsTravel TipsAdmin PostsConv PostsFollowed PostsChat RequestsBlog PostsPNR Posts

Disclaimer
Search
 
 
Tue Jul 29, 2014 08:05:16 ISTHomeTrainsΣChainsAtlasPNRForumGalleryNewsFAQTripsMembersLoginFeedback
No Recent News for this Train
Other Trains in the News **new
Latest...
Diverted via Moradabad-Ghaziabad-Delhi Jn.-Panipat-Kurukshetra on 15/6/14 #1134752.
Sat Jun 14, 2014 (02:17PM)
⇐ Return Journey: Train# 15210

15209/Jan Seva Express (UnReserved)

Dec 27 2013 (6:25PM)
Change Departure Station:
Change Arrival Station:
Post a Train Travel TipPost a Train Travel Tip **new
Post a Comment/Question/Picture/VideoPost a Comment/Question/Picture/Video
Inaugural Run
Sat Dec 12, 2009
Pantry/Catering
✕ NO Pantry Car
✕ NO Catering
RSA - Rake Sharing
RSA with 15275/76...shc bju express
Rake/Coach Composition
LOCO-SLR-GEN-GEN-GEN-GEN-GEN-GEN-GEN-GEN-GEN-GEN-GEN-GEN-GEN-GEN-GEN-GEN-GEN-GEN-GEN-GEN-SLR
Loco
SHC-MB: GD WDM-3A MB-ASR: GZB WAP5/WAP7
News    PNR    Forum    Time-Table    Availability    Fare Chart    Map    Arr/Dep History    Trips    Gallery    ΣChains    X/O    Timeline    
Travel Time: 28h 47m    38 halts    Distance: 1322 km    Avg Speed: 45 km/hr
Type: Mail/Express
Zone: ECR/East Central
Departs @ 08:45 (Avg 33m late)
Platform# 1
SMTWTFS
Saharsa Junction/SHC 
Arrives @ 13:32 +1 night (Avg 1h 39m late)
Platform# 1
SMTWTFS
Sirhind Junction/SIR 

38 halts. 223 intermediate Stations between Saharsa Junction and Sirhind Junction

Show ALL intermediate Stations  Show Old Time-Table

#CodeStation NameX/OArrivesAvgDepartsAvgHaltPFDay#KmSpeedElevZoneAddress
1SHC»Saharsa Junction (3)»  -08:45+33110.07346mECRSaharsa, Bihar
2SBVSimri Bakhtiyarpur (1)  08:59+4009:01+422m1117.14942mECRBakhtiarpur, Bihar
3KFAKoparia (1)  09:09+4209:11+432m1123.62242mECRBihar, Bihar
4MNEMansi Junction (3)X  10:03+3310:05+362m3142.55343mECRMansi, Bihar
5KGGKhagaria Junction (3)X  10:15+4010:17+432m1151.35843mECRKhagaria, Bihar
6LKNLakhminia  10:40+4210:42+422m--173.48245mECRBegusarai, Bihar
7BGSBegu Sarai (3)X  10:55+4810:57+492m1191.229 ECRBegusarai, Bihar
8BJUBarauni Junction (9)X  11:25+5211:35+5610m--1104.65249mECRBegusarai, Bihar
9BCABachwara Junction  11:54+1:0511:56+1:082m--1121.05449mECRBegusarai, Bihar
10MOGMohiuddinnagar (1)  12:19+1:1012:21+1:142m--1141.64154mECRSamastipur, Bihar
11SPPShahpur Patoree (2)  12:40+1:1112:42+1:162m--1154.56850mECRSamastipur, Bihar
12MNOMehnar RoadX  12:49+1:1912:51+1:212m--1162.44054mECRMehnar Road, Bihar
13DESDesari (2)O  13:06+1:2013:08+1:222m--1172.54750mECRVaishali, Bihar
14AYRNAkshaywat Rai Nagar  13:20+1:2413:22+1:252m--1181.81752mECRVaishali, Bihar
15HJPHajipur Junction (3)X  14:00+1:1214:05+1:185m--1192.33355mECR06224-272230, Bihar
16SEESonpur Junction (4)X  14:15+1:1814:20+1:185m31197.84656mECRSaran, Bihar
17DGADighwara (2)X  14:50+1:0914:52+1:102m--1221.03260mECR06158-281240, Bihar
18CPRChhapra Junction (6)  15:50+1:0916:00+1:1010m--1251.98058mNERDistt: Saran, Bihar
19EKMAEkma (3)X  16:21+1:2216:23+1:222m--1279.85864mNERSaran, Bihar
20DDADuraundha Junction (3)  16:39+1:2416:41+1:242m--1295.35664mNERDistt: Siwan, Bihar
21SVSiwan Junction (4)  17:00+1:1917:05+1:195m--1313.18570mNERSiwan, Bihar
22MWMairwa (2)X17:20+1:3117:22+1:312m--1334.44373mNERMairwa, Bihar
23BTTBhatni Junction (5)  18:00+1:2118:05+1:205m--1361.83573mNERDeoria, Uttar Pradesh
24DEOSDeoria Sadar (3)X  18:41+1:0918:46+1:095m--1382.64379mNERDeoria- 274001, Uttar Pradesh
25GKPGorakhpur Junction (10)X  19:55+1:2520:10+1:2715m--1431.76984mNERGorakhpur 273001, Uttar Pradesh
26BSTBasti (4)  21:05+1:4621:07+1:502m11495.16090mNERBasti 272001, Uttar Pradesh
27GDGonda Junction (3)X  22:35+1:4122:45+1:3910m11583.662110mNERGonda 271001, Uttar Pradesh
28BUWBurhwal Junction (3)  23:45+1:4423:50+1:445m31645.843119mNERBarabanki, Uttar Pradesh
29SCCSitapur Cantt. (2)X  02:05+1:1102:15+1:1410m--2743.345141mNRSitapur, Uttar Pradesh
30MINJMaikalGanj03:11+1:2203:12+1:231m--2784.958149mNRNational Highway 24, Uttar Pradesh
31BEBareilly Junction (4)X  05:15+1:1705:25+1:1910m12903.974174mNRBareilly, Uttar Pradesh
32RMURampur Junction (3)X  06:16+1:3106:18+1:332m--2966.939190mNRRampur, Uttar Pradesh
33MBMoradabad Junction (7)X07:00+1:3907:30+1:3330m32994.272201mNRMoradabad, Uttar Pradesh
34NBDNajibabad Junction (3)  08:52+1:2908:55+1:303m221093.144269mNRNajibabad, Uttar Pradesh
35LRJLaksar Junction (4)XO  09:52+1:1509:54+1:162m--21135.044238mNRLaksar, Uttarakhand
36SRESaharanpur Junction (6)  11:05+1:0811:10+1:125m521187.567276mNRSaharanpur, Uttar Pradesh
37JUDYamunanagar-Jagadhri (3)X  11:37+1:2111:38+1:221m321217.759275mNRYamunanagar, Haryana
38UMBAmbala Cantt. Junction (7)X  12:30+1:2412:40+1:2410m221268.767278mNRAmbala 133001, Haryana
39RPJRajpura Junction (3)X  13:05+1:2613:07+1:272m121296.860272mNRNH-1, Punjab
40SIR•Sirhind Junction (3)•O  13:32+1:3913:34+1:402m121321.636271mNRSirhind, Punjab
41DDLDhandari Kalan (3)X  15:04+1:0415:06+1:052m121374.850254mNRDhandari Kalan, Punjab
42LDHLudhiana Junction (7)X  15:15+1:1115:25+1:1210m321382.334246mNRLudhiana 141001, Punjab
43PHRPhillaur Junction (3)  15:48+1:2315:50+1:232m221395.475246mNRPhillaur, Punjab
44PGWPhagwara Junction (3)  16:08+1:2616:10+1:262m221418.063245mNRPhagwara, Punjab
45JUCJalandhar City Junction (5)  16:30+1:2716:35+1:285m121439.149239mNRJalandhar 144001, Punjab
46BEASBeas Junction (2)X  17:19+1:3117:21+1:312m121475.248238mNRBeas, Punjab
47ASRAmritsar Junction (5)  18:15+1:01-521518.2-233mNRAmritsar 143002, Punjab
Scroll to Top
Scroll to Bottom